createdAt,value
2019-01-11T00:01:40.997Z,1.60
2019-01-11T00:04:09.764Z,1.60
2019-01-11T00:06:38.421Z,1.60
2019-01-11T00:09:11.154Z,1.70
2019-01-11T00:11:39.921Z,1.70
2019-01-11T00:14:08.640Z,1.60
2019-01-11T00:16:37.408Z,1.70
2019-01-11T00:19:07.221Z,1.70
2019-01-11T00:21:36.116Z,1.70
2019-01-11T00:24:06.109Z,1.70
2019-01-11T00:26:34.820Z,1.70
2019-01-11T00:29:03.606Z,1.70
2019-01-11T00:31:32.275Z,1.70
2019-01-11T00:34:00.919Z,1.70
2019-01-11T00:36:29.638Z,1.70
2019-01-11T00:38:59.579Z,1.70
2019-01-11T00:41:28.478Z,1.70
2019-01-11T00:43:57.202Z,1.70
2019-01-11T00:46:25.990Z,1.70
2019-01-11T00:48:54.649Z,1.70
2019-01-11T00:51:23.313Z,1.70
2019-01-11T00:53:51.998Z,1.70
2019-01-11T00:56:20.761Z,1.70
2019-01-11T00:58:49.467Z,1.70
2019-01-11T01:01:18.189Z,1.70
2019-01-11T01:03:46.917Z,1.70
2019-01-11T01:06:15.739Z,1.70
2019-01-11T01:08:44.462Z,1.70
2019-01-11T01:11:13.235Z,1.80
2019-01-11T01:13:41.890Z,1.70
2019-01-11T01:16:10.650Z,1.70
2019-01-11T01:18:39.306Z,1.80
2019-01-11T01:21:08.247Z,1.70
2019-01-11T01:23:36.894Z,1.80
2019-01-11T01:26:05.781Z,1.80
2019-01-11T01:28:34.899Z,1.80
2019-01-11T01:31:03.622Z,1.80
2019-01-11T01:33:32.333Z,1.80
2019-01-11T01:36:00.974Z,1.80
2019-01-11T01:38:29.745Z,1.80
2019-01-11T01:40:58.465Z,1.80
2019-01-11T01:43:27.236Z,1.80
2019-01-11T01:45:55.843Z,1.80
2019-01-11T01:48:24.495Z,1.90
2019-01-11T01:50:53.198Z,1.90
2019-01-11T01:53:21.854Z,1.90
2019-01-11T01:55:50.506Z,1.90
2019-01-11T01:58:19.209Z,1.90
2019-01-11T02:00:48.017Z,1.90
2019-01-11T02:03:16.698Z,1.90
2019-01-11T02:05:45.394Z,1.90
2019-01-11T02:08:14.175Z,1.90
2019-01-11T02:10:42.793Z,1.90
2019-01-11T02:13:11.426Z,1.90
2019-01-11T02:15:40.082Z,1.90
2019-01-11T02:18:08.778Z,1.90
2019-01-11T02:20:37.536Z,1.90
2019-01-11T02:23:06.265Z,1.90
2019-01-11T02:25:35.034Z,1.90
2019-01-11T02:28:03.687Z,1.90
2019-01-11T02:30:32.448Z,1.90
2019-01-11T02:33:01.114Z,2.00
2019-01-11T02:35:29.769Z,2.00
2019-01-11T02:37:58.419Z,2.00
2019-01-11T02:40:27.181Z,2.00
2019-01-11T02:42:55.775Z,2.00
2019-01-11T02:45:24.536Z,2.00
2019-01-11T02:47:53.293Z,2.00
2019-01-11T02:50:21.953Z,2.00
2019-01-11T02:52:50.701Z,2.00
2019-01-11T02:55:19.386Z,2.00
2019-01-11T02:57:47.970Z,2.00
2019-01-11T03:00:19.005Z,2.10
2019-01-11T03:02:47.996Z,2.10
2019-01-11T03:05:17.043Z,2.10
2019-01-11T03:07:46.518Z,2.10
2019-01-11T03:10:20.623Z,2.10
2019-01-11T03:12:49.494Z,2.10
2019-01-11T03:15:19.521Z,2.10
2019-01-11T03:17:48.311Z,2.10
2019-01-11T03:20:18.483Z,2.10
2019-01-11T03:22:47.206Z,2.10
2019-01-11T03:25:16.655Z,2.10
2019-01-11T03:27:45.352Z,2.20
2019-01-11T03:30:19.265Z,2.20
2019-01-11T03:32:48.186Z,2.20
2019-01-11T03:35:18.317Z,2.10
2019-01-11T03:37:48.503Z,2.10
2019-01-11T03:40:22.054Z,2.20
2019-01-11T03:42:50.838Z,2.20
2019-01-11T03:45:21.254Z,2.20
2019-01-11T03:47:49.886Z,2.20
2019-01-11T03:50:19.814Z,2.20
2019-01-11T03:52:48.584Z,2.20
2019-01-11T03:55:38.079Z,2.20
2019-01-11T03:58:06.888Z,2.20
2019-01-11T04:00:35.588Z,2.20
2019-01-11T04:03:04.363Z,2.20
2019-01-11T04:05:32.931Z,2.20
2019-01-11T04:08:01.629Z,2.20
2019-01-11T04:10:30.349Z,2.20
2019-01-11T04:12:59.018Z,2.20
2019-01-11T04:15:27.638Z,2.20
2019-01-11T04:18:06.966Z,2.20
2019-01-11T04:20:35.662Z,2.30
2019-01-11T04:23:04.410Z,2.30
2019-01-11T04:25:33.381Z,2.30
2019-01-11T04:28:01.975Z,2.30
2019-01-11T04:30:30.591Z,2.30
2019-01-11T04:32:59.180Z,2.30
2019-01-11T04:35:27.878Z,2.30
2019-01-11T04:37:56.529Z,2.40
2019-01-11T04:40:25.222Z,2.40
2019-01-11T04:42:53.854Z,2.40
2019-01-11T04:45:22.476Z,2.40
2019-01-11T04:47:51.128Z,2.40
2019-01-11T04:50:19.820Z,2.40
2019-01-11T04:52:48.526Z,2.40
2019-01-11T04:55:17.248Z,2.40
2019-01-11T04:57:45.908Z,2.40
2019-01-11T05:00:17.626Z,2.40
2019-01-11T05:02:46.558Z,2.50
2019-01-11T05:05:15.579Z,2.40
2019-01-11T05:07:44.279Z,2.50
2019-01-11T05:10:15.507Z,2.40
2019-01-11T05:12:44.133Z,2.50
2019-01-11T05:15:12.903Z,2.50
2019-01-11T05:17:41.620Z,2.50
2019-01-11T05:20:16.609Z,2.50
2019-01-11T05:22:42.622Z,2.50
2019-01-11T05:25:11.381Z,2.50
2019-01-11T05:27:40.116Z,2.50
2019-01-11T05:30:11.974Z,2.50
2019-01-11T05:32:40.735Z,2.50
2019-01-11T05:35:09.438Z,2.50
2019-01-11T05:37:38.131Z,2.60
2019-01-11T05:40:12.694Z,2.60
2019-01-11T05:42:41.410Z,2.60
2019-01-11T05:45:10.232Z,2.60
2019-01-11T05:47:38.856Z,2.60
2019-01-11T05:50:10.653Z,2.60
2019-01-11T05:52:39.817Z,2.60
2019-01-11T05:55:10.913Z,2.60
2019-01-11T05:57:41.205Z,2.60
2019-01-11T06:00:11.666Z,2.60
2019-01-11T06:02:40.255Z,2.60
2019-01-11T06:05:10.657Z,2.70
2019-01-11T06:07:41.023Z,2.70
2019-01-11T06:10:12.918Z,2.70
2019-01-11T06:12:41.640Z,2.70
2019-01-11T06:15:10.405Z,2.70
2019-01-11T06:17:39.129Z,2.70
2019-01-11T06:20:10.829Z,2.70
2019-01-11T06:22:39.516Z,2.80
2019-01-11T06:25:08.297Z,2.80
2019-01-11T06:27:38.453Z,2.80
2019-01-11T06:30:13.317Z,2.80
2019-01-11T06:32:42.089Z,2.80
2019-01-11T06:35:10.858Z,2.80
2019-01-11T06:37:39.681Z,2.80
2019-01-11T06:40:10.529Z,2.80
2019-01-11T06:42:39.183Z,2.90
2019-01-11T06:45:12.262Z,2.90
2019-01-11T06:47:41.030Z,2.90
2019-01-11T06:50:12.701Z,2.80
2019-01-11T06:52:41.392Z,2.90
2019-01-11T06:55:11.208Z,2.90
2019-01-11T06:57:39.966Z,2.90
2019-01-11T07:00:11.664Z,2.90
2019-01-11T07:02:40.385Z,2.90
2019-01-11T07:05:10.951Z,2.90
2019-01-11T07:07:39.677Z,2.90
2019-01-11T07:10:20.106Z,3.00
2019-01-11T07:12:48.833Z,3.00
2019-01-11T07:15:17.955Z,3.00
2019-01-11T07:17:46.648Z,3.00
2019-01-11T07:20:15.880Z,3.00
2019-01-11T07:22:44.569Z,3.00
2019-01-11T07:25:15.058Z,3.00
2019-01-11T07:27:48.182Z,3.10
2019-01-11T07:30:17.714Z,3.10
2019-01-11T07:32:46.411Z,3.10
2019-01-11T07:35:15.070Z,3.10
2019-01-11T07:37:43.767Z,3.10
2019-01-11T07:40:13.085Z,3.10
2019-01-11T07:42:41.778Z,3.10
2019-01-11T07:45:12.769Z,3.10
2019-01-11T07:47:41.458Z,3.10
2019-01-11T07:50:10.716Z,3.10
2019-01-11T07:52:40.199Z,3.10
2019-01-11T07:55:10.011Z,3.20
2019-01-11T07:57:38.877Z,3.10
2019-01-11T08:00:10.887Z,3.10
2019-01-11T08:02:39.679Z,3.20
2019-01-11T08:05:09.342Z,3.20
2019-01-11T08:07:38.066Z,3.20
2019-01-11T08:10:09.631Z,3.20
2019-01-11T08:12:38.349Z,3.20
2019-01-11T08:15:12.671Z,3.20
2019-01-11T08:17:41.365Z,3.30
2019-01-11T08:20:10.134Z,3.30
2019-01-11T08:22:42.753Z,3.30
2019-01-11T08:25:13.984Z,3.30
2019-01-11T08:27:43.378Z,3.30
2019-01-11T08:30:14.753Z,3.40
2019-01-11T08:32:43.470Z,3.40
2019-01-11T08:35:13.730Z,3.50
2019-01-11T08:37:42.427Z,3.50
2019-01-11T08:40:12.796Z,3.50
2019-01-11T08:42:41.486Z,3.50
2019-01-11T08:45:12.918Z,3.50
2019-01-11T08:47:41.572Z,3.50
2019-01-11T08:50:19.041Z,3.60
